Time;durP1;ratioP1;P1;durP2;ratioP2;P2;SDS_P1;SDS_P2;PMS_P1;PMS_P2;Temp;Humidity;BMP_temperature;BMP_pressure;BME280_temperature;BME280_humidity;BME280_pressure;Samples;Min_cycle;Max_cycle;Signal;HPM_P1;HPM_P2
2023/04/24 00:02:15;;;;;;;1.27;1.23;;;13.80;97.30;;;;;;4972327;28;20436;-84
2023/04/24 00:04:44;;;;;;;2.90;1.40;;;13.80;97.30;;;;;;4970717;28;20423;-86
2023/04/24 00:07:10;;;;;;;1.83;1.40;;;13.80;97.30;;;;;;4968729;28;20558;-81
2023/04/24 00:09:35;;;;;;;1.30;1.20;;;13.80;97.30;;;;;;4971683;28;20998;-82
2023/04/24 00:12:04;;;;;;;1.13;1.03;;;13.70;97.30;;;;;;4972040;28;20434;-82
2023/04/24 00:14:30;;;;;;;0.97;0.87;;;13.70;97.30;;;;;;4966632;28;20167;-84
2023/04/24 00:16:55;;;;;;;1.00;0.90;;;13.70;97.30;;;;;;4971425;28;20445;-82
2023/04/24 00:19:21;;;;;;;1.00;0.93;;;13.60;97.30;;;;;;4963115;28;20430;-85
2023/04/24 00:21:49;;;;;;;2.77;1.40;;;13.60;97.30;;;;;;4979526;28;20246;-85
2023/04/24 00:24:18;;;;;;;10.23;1.30;;;13.60;97.30;;;;;;4967023;28;20174;-84
2023/04/24 00:26:43;;;;;;;1.20;0.90;;;13.50;97.30;;;;;;4993954;28;20422;-85
2023/04/24 00:29:09;;;;;;;1.37;1.33;;;13.50;97.30;;;;;;4986250;28;20879;-89
2023/04/24 00:31:34;;;;;;;1.53;1.47;;;13.50;97.30;;;;;;4983204;28;20232;-89
2023/04/24 00:34:02;;;;;;;1.57;1.57;;;13.50;97.30;;;;;;4981536;28;20186;-84
2023/04/24 00:36:27;;;;;;;1.20;1.13;;;13.50;97.30;;;;;;4964526;28;20635;-82
2023/04/24 00:38:54;;;;;;;1.10;1.07;;;13.50;97.30;;;;;;4966865;28;20433;-85
2023/04/24 00:41:20;;;;;;;1.10;1.00;;;13.50;97.30;;;;;;4962525;28;20280;-85
2023/04/24 00:43:46;;;;;;;1.47;1.47;;;13.40;97.30;;;;;;4972371;28;20434;-85
2023/04/24 00:46:12;;;;;;;1.27;1.17;;;13.40;97.30;;;;;;4966024;28;20425;-84
2023/04/24 00:48:39;;;;;;;1.50;1.40;;;13.40;97.30;;;;;;4956985;28;20345;-85
2023/04/24 00:51:05;;;;;;;0.90;0.80;;;13.40;97.30;;;;;;4971440;28;20603;-86
2023/04/24 00:53:31;;;;;;;1.07;0.97;;;13.30;97.30;;;;;;4961097;28;20505;-85
2023/04/24 00:55:57;;;;;;;1.40;1.27;;;13.30;97.30;;;;;;4972154;28;20183;-84
2023/04/24 00:58:23;;;;;;;1.10;1.00;;;13.30;97.30;;;;;;4966252;28;20175;-84
2023/04/24 01:00:52;;;;;;;1.00;1.00;;;13.30;97.30;;;;;;4970168;28;20516;-86
2023/04/24 01:03:22;;;;;;;1.03;1.03;;;13.20;97.30;;;;;;4965469;28;20457;-84
2023/04/24 01:05:49;;;;;;;1.67;1.47;;;13.20;97.30;;;;;;4971981;28;20528;-82
2023/04/24 01:08:15;;;;;;;1.17;1.07;;;13.20;97.30;;;;;;4972903;28;20853;-86
2023/04/24 01:10:41;;;;;;;1.00;1.00;;;13.20;97.30;;;;;;4970215;28;20474;-82
2023/04/24 01:13:08;;;;;;;1.13;1.03;;;13.10;97.30;;;;;;4965774;28;20422;-87
2023/04/24 01:15:34;;;;;;;1.40;1.30;;;13.10;97.30;;;;;;4968862;28;20484;-83
2023/04/24 01:18:00;;;;;;;1.10;1.00;;;13.10;97.30;;;;;;4970497;28;20707;-83
2023/04/24 01:20:26;;;;;;;0.97;0.87;;;13.10;97.30;;;;;;4968642;28;20807;-86
2023/04/24 01:22:52;;;;;;;1.17;1.07;;;13.10;97.30;;;;;;4971615;28;20191;-84
2023/04/24 01:25:18;;;;;;;1.10;1.00;;;13.00;97.30;;;;;;4964280;28;20482;-86
2023/04/24 01:27:43;;;;;;;1.37;1.13;;;13.00;97.30;;;;;;4955804;29;20510;-83
2023/04/24 01:30:10;;;;;;;2.20;1.10;;;13.00;97.30;;;;;;4972014;28;20199;-83
2023/04/24 01:32:36;;;;;;;1.03;0.97;;;13.00;97.30;;;;;;4971678;28;20175;-83
2023/04/24 01:35:02;;;;;;;1.20;1.10;;;13.00;97.30;;;;;;4959678;28;20428;-87
2023/04/24 01:37:28;;;;;;;2.90;1.10;;;13.00;97.30;;;;;;4956138;28;20495;-85
2023/04/24 01:39:53;;;;;;;1.07;1.03;;;12.90;97.30;;;;;;4973318;28;20879;-85
2023/04/24 01:42:19;;;;;;;1.97;1.23;;;12.90;97.30;;;;;;4972597;28;20256;-86
2023/04/24 01:44:45;;;;;;;2.60;2.40;;;12.90;97.30;;;;;;4975817;28;20652;-84
2023/04/24 01:47:11;;;;;;;1.13;1.00;;;12.90;97.30;;;;;;4977490;28;20671;-86
2023/04/24 01:49:39;;;;;;;1.10;1.00;;;12.90;97.30;;;;;;4976405;28;20418;-87
2023/04/24 01:52:04;;;;;;;1.23;1.13;;;12.90;97.30;;;;;;4993115;28;20438;-85
2023/04/24 01:54:35;;;;;;;1.00;0.90;;;12.80;97.30;;;;;;4969154;28;20437;-81
2023/04/24 01:57:05;;;;;;;1.00;0.90;;;12.80;97.30;;;;;;4992004;28;20178;-82
2023/04/24 01:59:34;;;;;;;1.10;1.00;;;12.80;97.30;;;;;;4977022;28;20415;-85
2023/04/24 02:02:05;;;;;;;1.40;1.30;;;12.70;97.30;;;;;;4991033;28;20484;-92
2023/04/24 02:04:54;;;;;;;1.00;0.90;;;12.70;97.30;;;;;;4993901;28;20405;-91
2023/04/24 02:07:26;;;;;;;1.13;1.03;;;12.70;97.30;;;;;;4985906;28;20829;-86
2023/04/24 02:09:55;;;;;;;0.90;0.80;;;12.70;97.30;;;;;;4984769;28;20527;-84
2023/04/24 02:12:44;;;;;;;1.40;1.30;;;12.60;97.30;;;;;;4974330;28;20453;-82
2023/04/24 02:15:15;;;;;;;1.10;1.00;;;12.60;97.30;;;;;;4967766;28;20571;-87
2023/04/24 02:17:43;;;;;;;1.10;1.00;;;12.60;97.30;;;;;;4971720;28;20433;-86
2023/04/24 02:20:13;;;;;;;0.90;0.80;;;12.60;97.30;;;;;;4970800;28;20430;-86
2023/04/24 02:22:38;;;;;;;1.43;1.33;;;12.60;97.30;;;;;;4991862;28;20434;-85
2023/04/24 02:25:05;;;;;;;1.10;1.00;;;12.60;97.30;;;;;;4975043;28;20441;-88
2023/04/24 02:27:33;;;;;;;0.90;0.80;;;12.50;97.30;;;;;;4990769;28;20190;-87
2023/04/24 02:30:16;;;;;;;1.00;0.90;;;12.50;97.30;;;;;;4974085;28;20458;-86
2023/04/24 02:32:46;;;;;;;0.80;0.80;;;12.50;97.30;;;;;;4978124;28;20429;-85
2023/04/24 02:35:15;;;;;;;1.00;0.90;;;12.50;97.30;;;;;;4961599;28;20421;-87
2023/04/24 02:37:45;;;;;;;1.00;0.90;;;12.50;97.30;;;;;;4975460;28;20418;-84
2023/04/24 02:40:14;;;;;;;1.00;0.90;;;12.50;97.30;;;;;;4974506;28;20440;-88
2023/04/24 02:42:45;;;;;;;0.90;0.80;;;12.50;97.30;;;;;;4985108;28;20541;-81
2023/04/24 02:45:44;;;;;;;1.23;1.00;;;12.50;97.30;;;;;;4956679;28;20452;-84
2023/04/24 02:48:10;;;;;;;0.90;0.80;;;12.40;97.30;;;;;;4968073;28;20409;-83
2023/04/24 02:50:35;;;;;;;0.70;0.70;;;12.40;97.30;;;;;;4968156;28;20470;-82
2023/04/24 02:53:03;;;;;;;1.10;1.00;;;12.40;97.30;;;;;;4969748;28;20655;-86
2023/04/24 02:55:28;;;;;;;1.50;1.40;;;12.40;97.30;;;;;;4964101;28;20166;-87
2023/04/24 02:57:54;;;;;;;1.20;1.10;;;12.40;97.30;;;;;;4972163;28;20418;-83
2023/04/24 03:00:20;;;;;;;2.70;1.50;;;12.30;97.30;;;;;;4970936;28;20207;-85
2023/04/24 03:02:45;;;;;;;1.33;1.20;;;12.30;97.30;;;;;;4969011;28;20585;-84
2023/04/24 03:05:11;;;;;;;1.00;0.90;;;12.30;97.30;;;;;;4986292;28;20556;-83
2023/04/24 03:07:37;;;;;;;1.10;1.00;;;12.30;97.30;;;;;;4971830;28;20554;-87
2023/04/24 03:10:04;;;;;;;1.00;0.90;;;12.30;97.30;;;;;;4974461;28;20956;-87
2023/04/24 03:12:30;;;;;;;0.87;0.83;;;12.20;97.30;;;;;;4966666;28;20273;-86
2023/04/24 03:14:56;;;;;;;0.90;0.80;;;12.20;97.30;;;;;;4965073;28;20536;-86
2023/04/24 03:17:21;;;;;;;0.83;0.77;;;12.20;97.30;;;;;;4982796;28;20261;-86
2023/04/24 03:19:47;;;;;;;1.50;1.10;;;12.20;97.30;;;;;;4957313;28;20201;-86
2023/04/24 03:22:12;;;;;;;1.40;1.30;;;12.20;97.30;;;;;;4964338;28;20465;-86
2023/04/24 03:24:38;;;;;;;1.10;1.00;;;12.20;97.30;;;;;;4955985;28;20184;-87
2023/04/24 03:27:03;;;;;;;1.10;1.10;;;12.10;97.30;;;;;;4961628;28;20226;-88
2023/04/24 03:29:29;;;;;;;1.20;1.10;;;12.10;97.30;;;;;;4968811;28;20190;-87
2023/04/24 03:31:55;;;;;;;1.07;0.97;;;12.10;97.30;;;;;;4953540;28;20258;-88
2023/04/24 03:34:20;;;;;;;1.50;1.50;;;12.10;97.30;;;;;;4964089;28;20743;-88
2023/04/24 03:36:49;;;;;;;1.07;0.97;;;12.10;97.30;;;;;;4955047;28;20626;-90
2023/04/24 03:39:14;;;;;;;1.23;1.13;;;12.10;97.30;;;;;;4951659;28;20206;-87
2023/04/24 03:41:40;;;;;;;1.00;0.90;;;12.10;97.30;;;;;;4959599;28;20478;-87
2023/04/24 03:44:05;;;;;;;1.60;1.50;;;12.10;97.30;;;;;;4958056;28;20761;-87
2023/04/24 03:46:34;;;;;;;1.00;0.90;;;12.10;97.30;;;;;;4955378;28;20186;-82
2023/04/24 03:49:25;;;;;;;0.90;0.80;;;12.00;97.30;;;;;;4960305;28;20183;-84
2023/04/24 03:52:16;;;;;;;1.13;1.03;;;12.00;97.30;;;;;;4962842;28;20461;-85
2023/04/24 03:55:06;;;;;;;1.10;1.00;;;12.00;97.30;;;;;;4974945;28;20462;-85
2023/04/24 03:58:14;;;;;;;1.07;1.00;;;12.00;97.30;;;;;;4964267;28;20427;-86
2023/04/24 04:00:47;;;;;;;1.30;1.20;;;12.00;97.30;;;;;;4970052;28;20856;-88
2023/04/24 04:03:16;;;;;;;1.10;1.03;;;12.00;97.30;;;;;;4958606;28;20563;-89
2023/04/24 04:06:15;;;;;;;1.20;1.10;;;12.00;97.30;;;;;;4966786;28;20415;-84
2023/04/24 04:08:46;;;;;;;1.30;1.20;;;11.90;97.30;;;;;;4972337;28;20420;-87
2023/04/24 04:11:15;;;;;;;1.00;0.90;;;11.90;97.30;;;;;;4958429;28;20466;-86
2023/04/24 04:13:43;;;;;;;1.10;1.00;;;12.00;97.30;;;;;;4956760;28;20842;-88
2023/04/24 04:16:16;;;;;;;1.10;1.00;;;12.00;97.30;;;;;;4965807;28;20446;-87
2023/04/24 04:18:42;;;;;;;1.20;1.10;;;12.00;97.30;;;;;;4961148;28;20418;-89
2023/04/24 04:21:07;;;;;;;1.00;0.90;;;12.00;97.30;;;;;;4955864;28;20802;-86
2023/04/24 04:23:33;;;;;;;1.03;0.93;;;12.00;97.30;;;;;;4980551;28;20332;-87
2023/04/24 04:25:59;;;;;;;4.20;2.07;;;12.00;97.30;;;;;;4955595;28;20660;-86
2023/04/24 04:28:25;;;;;;;1.10;1.00;;;12.00;97.30;;;;;;4972614;28;20233;-86
2023/04/24 04:30:53;;;;;;;1.23;1.20;;;12.00;97.30;;;;;;4981583;28;20789;-90
2023/04/24 04:33:22;;;;;;;1.23;1.13;;;12.00;97.30;;;;;;4962949;28;20182;-85
2023/04/24 04:35:56;;;;;;;1.30;1.20;;;12.10;97.30;;;;;;4961253;28;20481;-81
2023/04/24 04:38:22;;;;;;;1.00;0.90;;;12.10;97.30;;;;;;4968832;28;20426;-85
2023/04/24 04:40:48;;;;;;;1.30;1.20;;;12.00;97.30;;;;;;4955285;28;20487;-85
2023/04/24 04:43:14;;;;;;;1.10;1.00;;;12.00;97.30;;;;;;4981836;28;20446;-82
2023/04/24 04:45:41;;;;;;;1.00;0.90;;;12.00;97.30;;;;;;4968786;28;20431;-84
2023/04/24 04:48:12;;;;;;;1.00;0.90;;;12.00;97.30;;;;;;4969440;28;20505;-85
2023/04/24 04:50:37;;;;;;;3.03;1.90;;;12.10;97.30;;;;;;4973737;28;20482;-87
2023/04/24 04:53:03;;;;;;;2.90;1.43;;;12.10;97.30;;;;;;4983915;28;20423;-81
2023/04/24 04:55:29;;;;;;;1.10;1.00;;;12.10;97.30;;;;;;4972290;28;20422;-85
2023/04/24 04:57:55;;;;;;;0.93;0.93;;;12.10;97.30;;;;;;4967391;28;20187;-87
2023/04/24 05:00:22;;;;;;;1.73;1.40;;;12.10;97.30;;;;;;4970028;28;20194;-84
2023/04/24 05:02:48;;;;;;;4.00;1.57;;;12.20;97.30;;;;;;4966390;28;20427;-87
2023/04/24 05:05:13;;;;;;;1.33;1.23;;;12.20;97.30;;;;;;4973718;28;20962;-86
2023/04/24 05:07:39;;;;;;;1.00;0.90;;;12.20;97.30;;;;;;4966482;28;20182;-85
2023/04/24 05:10:05;;;;;;;1.00;0.90;;;12.20;97.30;;;;;;4975545;28;20201;-87
2023/04/24 05:12:30;;;;;;;2.20;1.60;;;12.30;97.30;;;;;;4974870;28;20265;-86
2023/04/24 05:14:56;;;;;;;1.10;1.00;;;12.30;97.30;;;;;;4969889;28;20458;-87
2023/04/24 05:17:22;;;;;;;2.30;1.10;;;12.30;97.30;;;;;;4980091;28;20254;-85
2023/04/24 05:19:48;;;;;;;1.10;1.00;;;12.40;97.30;;;;;;4984345;28;20249;-86
2023/04/24 05:22:13;;;;;;;1.13;1.03;;;12.40;97.30;;;;;;4984335;28;20206;-84
2023/04/24 05:24:39;;;;;;;1.67;1.20;;;12.40;97.30;;;;;;5002064;28;20433;-86
2023/04/24 05:27:05;;;;;;;0.90;0.80;;;12.50;97.30;;;;;;4954156;28;20648;-88
2023/04/24 05:29:31;;;;;;;1.10;1.00;;;12.50;97.30;;;;;;4951783;28;20282;-86
2023/04/24 05:31:57;;;;;;;1.00;0.90;;;12.60;97.30;;;;;;4951396;28;20482;-87
2023/04/24 05:34:23;;;;;;;1.20;1.10;;;12.70;97.30;;;;;;4952994;28;20940;-87
2023/04/24 05:36:48;;;;;;;5.27;2.60;;;12.80;97.30;;;;;;4951034;28;20514;-88
2023/04/24 05:39:15;;;;;;;3.00;1.10;;;12.80;97.30;;;;;;4954006;28;20226;-88
2023/04/24 05:45:06;;;;;;;1.07;1.00;;;12.90;97.30;;;;;;4945374;28;20431;-86
2023/04/24 05:47:36;;;;;;;1.50;0.90;;;12.90;97.30;;;;;;4957846;28;20414;-85
2023/04/24 05:50:25;;;;;;;1.20;1.10;;;12.90;97.30;;;;;;4974819;28;20470;-87
2023/04/24 05:53:06;;;;;;;1.10;1.00;;;13.00;97.30;;;;;;4935338;29;20908;-86
2023/04/24 05:55:36;;;;;;;1.10;1.00;;;13.00;97.30;;;;;;4930299;29;20414;-86
2023/04/24 05:58:22;;;;;;;1.10;1.10;;;13.10;97.30;;;;;;4933481;28;20431;-85
2023/04/24 06:00:55;;;;;;;11.93;2.03;;;13.10;97.30;;;;;;4930924;29;20443;-85
2023/04/24 06:03:24;;;;;;;7.47;1.27;;;13.20;97.30;;;;;;4931651;29;20424;-85
2023/04/24 06:06:06;;;;;;;2.40;1.20;;;13.20;97.30;;;;;;4931414;29;20511;-86
2023/04/24 06:08:35;;;;;;;1.10;1.00;;;13.30;97.30;;;;;;4936221;29;20950;-85
2023/04/24 06:11:37;;;;;;;;;;;;;;;;;;;;;
2023/04/24 06:14:45;;;;;;;0.90;0.80;;;13.50;97.30;;;;;;4932659;29;20428;-85
2023/04/24 06:17:47;;;;;;;;;;;;;;;;;;;;;
2023/04/24 06:20:36;;;;;;;0.97;0.90;;;13.60;97.30;;;;;;4943077;29;20804;-85
2023/04/24 06:26:37;;;;;;;1.00;0.90;;;13.70;97.30;;;;;;4840875;29;20426;-85
2023/04/24 06:29:07;;;;;;;1.20;1.10;;;13.70;97.30;;;;;;4942317;29;20823;-85
2023/04/24 06:31:36;;;;;;;1.00;0.90;;;13.80;97.30;;;;;;4934315;29;20478;-85
2023/04/24 06:34:16;;;;;;;1.10;1.03;;;13.80;97.30;;;;;;4934679;29;20427;-85
2023/04/24 06:37:17;;;;;;;1.63;1.60;;;13.80;97.30;;;;;;4940645;29;20423;-85
2023/04/24 06:39:45;;;;;;;1.13;1.03;;;13.70;97.30;;;;;;4969570;28;20414;-85
2023/04/24 06:42:24;;;;;;;1.00;0.90;;;13.70;97.30;;;;;;4944473;28;20883;-87
2023/04/24 06:45:03;;;;;;;1.10;1.00;;;13.70;97.30;;;;;;4934566;29;20470;-85
2023/04/24 06:47:36;;;;;;;8.70;2.10;;;13.60;97.30;;;;;;4934028;29;20574;-87
2023/04/24 06:50:26;;;;;;;0.90;0.80;;;13.50;97.30;;;;;;4942436;29;20463;-85
2023/04/24 06:52:56;;;;;;;1.33;1.27;;;13.50;97.30;;;;;;4934148;29;20424;-86
2023/04/24 06:55:26;;;;;;;0.93;0.90;;;13.50;97.30;;;;;;4945194;29;21003;-85
2023/04/24 06:57:55;;;;;;;0.80;0.80;;;13.50;97.30;;;;;;4947511;28;20850;-86
2023/04/24 07:00:46;;;;;;;1.00;0.90;;;13.50;97.30;;;;;;4937053;29;20808;-85
2023/04/24 07:03:25;;;;;;;2.20;1.10;;;13.50;97.30;;;;;;4950278;28;20459;-86
2023/04/24 07:06:06;;;;;;;0.90;0.80;;;13.50;97.30;;;;;;4934318;29;20442;-85
2023/04/24 07:08:44;;;;;;;1.00;0.90;;;13.50;97.30;;;;;;4935366;29;20434;-85
2023/04/24 07:11:16;;;;;;;1.60;1.53;;;13.50;97.30;;;;;;4968205;28;20494;-89
2023/04/24 07:13:56;;;;;;;1.20;1.10;;;13.50;97.30;;;;;;4964657;28;20952;-86
2023/04/24 07:16:36;;;;;;;0.83;0.77;;;13.50;97.30;;;;;;4935507;28;20426;-85
2023/04/24 07:19:26;;;;;;;2.80;1.13;;;13.50;97.30;;;;;;4941955;29;20432;-85
2023/04/24 07:22:01;;;;;;;;;;;;;;;;;;;;;
2023/04/24 07:24:37;;;;;;;;;;;;;;;;;;;;;
2023/04/24 07:27:16;;;;;;;1.57;1.47;;;13.60;97.30;;;;;;4935043;29;20427;-85
2023/04/24 07:30:06;;;;;;;1.00;0.90;;;13.60;97.30;;;;;;4968692;28;20427;-86
2023/04/24 07:32:45;;;;;;;1.23;1.13;;;13.70;97.30;;;;;;4936620;28;21007;-85
2023/04/24 07:35:46;;;;;;;0.90;0.90;;;13.80;97.30;;;;;;4941123;29;20950;-85
2023/04/24 07:38:26;;;;;;;0.90;0.80;;;13.80;97.30;;;;;;4941026;29;20478;-86
2023/04/24 07:41:05;;;;;;;1.10;1.00;;;14.00;97.30;;;;;;4932968;29;20475;-85
2023/04/24 07:43:36;;;;;;;4.43;1.37;;;14.00;97.30;;;;;;4930434;29;20430;-86
2023/04/24 07:49:24;;;;;;;0.97;0.87;;;14.20;97.30;;;;;;4883470;29;20486;-85
2023/04/24 07:52:15;;;;;;;20.53;1.20;;;14.30;97.30;;;;;;4944163;29;20525;-87
2023/04/24 07:54:46;;;;;;;1.00;0.90;;;14.40;97.30;;;;;;4941379;29;20418;-87
2023/04/24 07:57:14;;;;;;;1.00;0.90;;;14.30;97.30;;;;;;4937881;29;20427;-85
2023/04/24 07:59:40;;;;;;;1.23;1.13;;;14.30;97.30;;;;;;4952546;28;20435;-86
2023/04/24 08:02:06;;;;;;;1.13;0.90;;;14.30;97.30;;;;;;4957195;28;20450;-89
2023/04/24 08:04:32;;;;;;;0.93;0.83;;;14.30;97.30;;;;;;4945671;29;20275;-88
2023/04/24 08:06:57;;;;;;;4.30;1.60;;;14.40;97.30;;;;;;4944650;28;20428;-86
2023/04/24 08:09:23;;;;;;;0.87;0.80;;;14.50;97.30;;;;;;4933612;29;21017;-85
2023/04/24 08:11:48;;;;;;;1.07;1.00;;;14.70;97.30;;;;;;4947395;29;20604;-86
2023/04/24 08:14:14;;;;;;;1.63;1.53;;;14.80;96.90;;;;;;4934291;28;20293;-87
2023/04/24 08:16:40;;;;;;;0.90;0.80;;;14.90;96.50;;;;;;4932886;29;20279;-86
2023/04/24 08:19:06;;;;;;;0.93;0.87;;;15.00;95.80;;;;;;4932660;29;20921;-85
2023/04/24 08:21:32;;;;;;;1.30;1.20;;;15.00;95.20;;;;;;4940805;29;20481;-85
2023/04/24 08:23:57;;;;;;;0.93;0.87;;;14.90;95.40;;;;;;4933542;29;20211;-85
2023/04/24 08:26:23;;;;;;;0.83;0.77;;;15.00;95.70;;;;;;4943076;29;20198;-85
2023/04/24 08:28:50;;;;;;;0.90;0.90;;;15.10;95.10;;;;;;4937204;28;20184;-87
2023/04/24 08:31:16;;;;;;;1.47;1.10;;;15.20;95.00;;;;;;4938700;29;20242;-85
2023/04/24 08:33:47;;;;;;;0.90;0.80;;;15.30;94.50;;;;;;4941622;29;20432;-85
2023/04/24 08:36:36;;;;;;;2.10;1.27;;;15.50;93.70;;;;;;4932554;29;20184;-85
2023/04/24 08:39:17;;;;;;;;;;;;;;;;;;;;;
2023/04/24 08:42:07;;;;;;;;;;;;;;;;;;;;;
2023/04/24 08:44:36;;;;;;;1.23;0.90;;;15.90;92.00;;;;;;4933233;29;20411;-85
2023/04/24 08:47:05;;;;;;;0.90;0.80;;;15.90;92.40;;;;;;4940009;29;20430;-85
2023/04/24 08:49:45;;;;;;;0.70;0.70;;;15.90;91.50;;;;;;4939420;28;20518;-85
2023/04/24 08:52:15;;;;;;;1.00;0.90;;;15.80;90.30;;;;;;4939684;29;20443;-85
2023/04/24 08:54:56;;;;;;;0.90;0.80;;;15.80;90.10;;;;;;4940073;29;20412;-86
2023/04/24 08:57:26;;;;;;;1.97;1.07;;;15.60;90.00;;;;;;4933110;29;20466;-86
2023/04/24 09:00:10;;;;;;;;;;;;;;;;;;;;;
2023/04/24 09:02:46;;;;;;;1.03;1.00;;;15.30;90.60;;;;;;4926379;29;20461;-87
2023/04/24 09:05:17;;;;;;;0.90;0.80;;;15.20;90.70;;;;;;4945588;29;20474;-85
2023/04/24 09:07:53;;;;;;;1.03;0.93;;;15.30;90.80;;;;;;4931654;29;20447;-85
2023/04/24 09:10:19;;;;;;;1.33;1.10;;;15.50;91.10;;;;;;4939718;29;20469;-83
2023/04/24 09:12:45;;;;;;;0.70;0.70;;;15.90;90.80;;;;;;4942371;29;20430;-86
2023/04/24 09:15:11;;;;;;;0.90;0.80;;;15.90;89.90;;;;;;4931491;29;20420;-87
2023/04/24 09:17:37;;;;;;;0.90;0.80;;;15.90;90.10;;;;;;4939637;29;20419;-85
2023/04/24 09:20:04;;;;;;;0.90;0.80;;;15.80;90.00;;;;;;4947617;28;20192;-85
2023/04/24 09:22:30;;;;;;;1.20;1.10;;;15.70;90.10;;;;;;4936165;29;20450;-86
2023/04/24 09:25:09;;;;;;;1.47;1.17;;;15.70;91.20;;;;;;4945056;28;20420;-85
2023/04/24 09:27:34;;;;;;;0.70;0.70;;;15.80;91.10;;;;;;4932806;28;20436;-86
2023/04/24 09:30:01;;;;;;;1.67;1.40;;;15.70;90.40;;;;;;4931662;29;20459;-85
2023/04/24 09:32:28;;;;;;;1.00;0.90;;;15.60;91.10;;;;;;4947128;29;20206;-85
2023/04/24 09:35:11;;;;;;;1.40;1.30;;;15.40;91.20;;;;;;4933238;29;20583;-86
2023/04/24 09:37:43;;;;;;;1.10;0.80;;;15.30;91.90;;;;;;4925840;29;20467;-85
2023/04/24 09:40:11;;;;;;;1.10;1.00;;;15.20;92.50;;;;;;4939644;29;20425;-85
2023/04/24 09:42:37;;;;;;;1.63;1.03;;;15.10;92.10;;;;;;4934890;29;20486;-85
2023/04/24 09:45:03;;;;;;;0.93;0.87;;;15.00;92.60;;;;;;4930102;29;20419;-85
2023/04/24 09:48:08;;;;;;;;;;;;;;;;;;;;;
2023/04/24 09:50:37;;;;;;;0.80;0.70;;;15.00;91.90;;;;;;4891212;29;20485;-85
2023/04/24 09:53:57;;;;;;;;;;;;;;;;;;;;;
2023/04/24 09:56:35;;;;;;;1.47;1.37;;;15.00;90.20;;;;;;4895752;29;20432;-85
2023/04/24 09:59:26;;;;;;;1.47;1.00;;;15.00;90.90;;;;;;4904624;29;20424;-86
2023/04/24 10:05:47;;;;;;;1.20;1.10;;;15.20;91.10;;;;;;4925970;29;20431;-84
2023/04/24 10:08:37;;;;;;;1.00;1.00;;;15.30;91.70;;;;;;4931540;29;20435;-86
2023/04/24 10:11:06;;;;;;;1.10;1.00;;;15.30;90.80;;;;;;4938444;28;20525;-84
2023/04/24 10:13:47;;;;;;;1.10;1.00;;;15.70;91.20;;;;;;4942892;29;20832;-85
2023/04/24 10:16:47;;;;;;;3.13;0.93;;;15.80;88.30;;;;;;4942542;28;20435;-85
2023/04/24 10:19:18;;;;;;;0.70;0.70;;;15.90;87.00;;;;;;4895623;29;21107;-85
2023/04/24 10:22:15;;;;;;;0.77;0.70;;;16.00;87.80;;;;;;4882520;29;20588;-85
2023/04/24 10:24:45;;;;;;;0.93;0.83;;;16.00;86.70;;;;;;4928607;29;20482;-85
2023/04/24 10:27:26;;;;;;;0.70;0.70;;;15.80;87.70;;;;;;4942390;29;20430;-88
2023/04/24 10:29:55;;;;;;;1.00;0.90;;;15.70;87.40;;;;;;4934644;29;20427;-85
2023/04/24 10:32:23;;;;;;;1.07;0.97;;;15.50;85.20;;;;;;4942369;29;20442;-84
2023/04/24 10:34:57;;;;;;;1.10;1.00;;;15.40;84.50;;;;;;4934111;29;20529;-86
2023/04/24 10:37:26;;;;;;;3.87;0.87;;;15.30;84.60;;;;;;4934260;29;20482;-84
2023/04/24 10:39:55;;;;;;;1.00;0.90;;;15.40;84.40;;;;;;4940482;29;20450;-86
2023/04/24 10:42:28;;;;;;;8.63;1.40;;;15.50;83.70;;;;;;4954109;28;20473;-87
2023/04/24 10:44:57;;;;;;;1.20;1.10;;;15.60;84.60;;;;;;4954632;28;20459;-87
2023/04/24 10:47:25;;;;;;;0.80;0.80;;;16.00;85.10;;;;;;4953444;28;20420;-85
2023/04/24 10:49:53;;;;;;;2.30;1.30;;;16.20;83.50;;;;;;4941155;28;20924;-85
2023/04/24 10:52:21;;;;;;;0.97;0.87;;;16.00;83.50;;;;;;4936407;29;20965;-85
2023/04/24 10:54:47;;;;;;;2.30;1.47;;;16.10;83.20;;;;;;4948390;28;20506;-85
2023/04/24 10:57:19;;;;;;;1.20;1.10;;;16.00;82.30;;;;;;4941721;29;20903;-85
2023/04/24 10:59:46;;;;;;;0.90;0.80;;;15.90;81.40;;;;;;4941757;29;20503;-85
2023/04/24 11:02:15;;;;;;;4.10;1.47;;;16.00;82.50;;;;;;4941568;29;20532;-85
2023/04/24 11:04:42;;;;;;;2.97;1.20;;;16.10;81.70;;;;;;4945693;28;20842;-86
2023/04/24 11:07:09;;;;;;;1.00;0.90;;;16.30;81.80;;;;;;4952245;28;20415;-86
2023/04/24 11:09:36;;;;;;;1.10;1.00;;;16.70;82.20;;;;;;4933736;29;20450;-85
2023/04/24 11:12:11;;;;;;;1.13;1.10;;;16.90;80.00;;;;;;4949458;29;20988;-86
2023/04/24 11:14:55;;;;;;;1.10;1.00;;;16.90;79.60;;;;;;4934226;29;20502;-88
2023/04/24 11:17:30;;;;;;;1.00;0.83;;;17.00;79.30;;;;;;4943073;29;20454;-85
2023/04/24 11:20:01;;;;;;;1.37;1.27;;;16.80;78.30;;;;;;4939057;28;20418;-86
2023/04/24 11:22:32;;;;;;;3.23;2.33;;;16.80;79.40;;;;;;4941299;29;20440;-85
2023/04/24 11:25:02;;;;;;;0.77;0.67;;;16.80;78.20;;;;;;4933612;29;20864;-86
2023/04/24 11:27:39;;;;;;;1.03;0.93;;;16.90;78.40;;;;;;4933138;29;20428;-85
2023/04/24 11:30:05;;;;;;;1.20;1.10;;;17.20;78.00;;;;;;4940505;29;20546;-86
2023/04/24 11:32:37;;;;;;;0.90;0.80;;;17.60;77.20;;;;;;4949429;28;20448;-85
2023/04/24 11:35:06;;;;;;;1.20;1.10;;;17.90;77.30;;;;;;4943985;29;20463;-84
2023/04/24 11:37:37;;;;;;;1.07;0.97;;;18.10;75.30;;;;;;4941249;29;20524;-87
2023/04/24 11:40:05;;;;;;;0.90;0.80;;;17.90;74.10;;;;;;4949525;29;20455;-85
2023/04/24 11:42:38;;;;;;;1.30;1.20;;;18.10;73.90;;;;;;4994370;23;20568;-84
2023/04/24 11:45:12;;;;;;;1.23;1.23;;;18.20;74.40;;;;;;4976574;28;20823;-85
2023/04/24 11:47:38;;;;;;;0.90;0.90;;;18.20;73.20;;;;;;4961964;28;20430;-85
2023/04/24 11:50:06;;;;;;;2.93;1.40;;;18.00;72.50;;;;;;4984136;28;20557;-84
2023/04/24 11:52:36;;;;;;;1.57;1.27;;;17.80;73.10;;;;;;4969593;28;20443;-83
2023/04/24 11:55:03;;;;;;;3.27;1.67;;;17.60;73.50;;;;;;4952540;29;20441;-84
2023/04/24 11:57:33;;;;;;;1.23;1.13;;;17.50;74.70;;;;;;4954504;28;20430;-85
2023/04/24 12:00:02;;;;;;;2.10;1.30;;;17.10;74.80;;;;;;4971544;28;20430;-84
2023/04/24 12:02:28;;;;;;;0.77;0.70;;;16.80;74.80;;;;;;4953001;28;20449;-84
2023/04/24 12:04:54;;;;;;;1.63;1.30;;;16.80;75.60;;;;;;4957580;28;20801;-84
2023/04/24 12:07:20;;;;;;;0.97;0.87;;;17.30;77.10;;;;;;4962307;28;20702;-83
2023/04/24 12:09:48;;;;;;;1.10;1.00;;;17.90;73.40;;;;;;4960047;28;20435;-84
2023/04/24 12:12:15;;;;;;;1.03;1.00;;;17.80;73.10;;;;;;4962467;28;20529;-83
2023/04/24 12:14:54;;;;;;;0.90;0.80;;;17.50;73.80;;;;;;4959146;28;20432;-85
2023/04/24 12:17:28;;;;;;;1.33;1.10;;;17.40;74.70;;;;;;4955620;28;20450;-84
2023/04/24 12:20:02;;;;;;;1.13;1.03;;;17.20;74.40;;;;;;4958362;28;20462;-83
2023/04/24 12:22:28;;;;;;;1.80;1.13;;;17.40;74.60;;;;;;4951414;28;20482;-84
2023/04/24 12:25:05;;;;;;;1.47;1.10;;;17.30;74.30;;;;;;4951720;28;20465;-84
2023/04/24 12:27:32;;;;;;;1.17;1.07;;;17.30;74.80;;;;;;4959672;28;20432;-84
2023/04/24 12:29:59;;;;;;;1.00;0.90;;;17.20;75.00;;;;;;4951759;28;20450;-85
2023/04/24 12:32:25;;;;;;;1.53;1.27;;;17.30;74.90;;;;;;4962220;28;20525;-85
2023/04/24 12:34:52;;;;;;;0.77;0.70;;;17.50;74.40;;;;;;4964916;28;20453;-85
2023/04/24 12:37:18;;;;;;;1.17;1.10;;;17.60;73.70;;;;;;4971627;28;20844;-85
2023/04/24 12:40:01;;;;;;;1.20;1.10;;;17.80;73.60;;;;;;4968290;28;20407;-85
2023/04/24 12:42:28;;;;;;;3.03;1.37;;;17.60;73.70;;;;;;4967246;28;20264;-85
2023/04/24 12:45:00;;;;;;;1.00;0.90;;;17.30;74.00;;;;;;4951969;28;20423;-84
2023/04/24 12:47:27;;;;;;;1.00;0.90;;;17.00;74.10;;;;;;4967772;28;20449;-85
2023/04/24 12:49:53;;;;;;;1.10;1.00;;;16.80;75.00;;;;;;4957812;28;20410;-85
2023/04/24 12:52:23;;;;;;;3.27;1.40;;;16.70;75.90;;;;;;4970891;28;20500;-85
2023/04/24 12:54:50;;;;;;;1.00;0.97;;;16.70;76.10;;;;;;4966222;28;20175;-84
2023/04/24 12:57:15;;;;;;;1.30;1.17;;;16.70;76.10;;;;;;4968694;28;20410;-84
2023/04/24 12:59:43;;;;;;;0.90;0.80;;;16.80;75.20;;;;;;4951610;29;20435;-85
2023/04/24 13:02:11;;;;;;;1.00;0.90;;;17.30;75.80;;;;;;4951100;28;20593;-84
2023/04/24 13:04:37;;;;;;;1.20;1.10;;;17.40;72.80;;;;;;4952465;28;20462;-85
2023/04/24 13:07:03;;;;;;;0.80;0.80;;;17.30;73.50;;;;;;4951040;29;20454;-84
2023/04/24 13:09:30;;;;;;;1.10;1.00;;;17.30;73.60;;;;;;4952930;28;20187;-85
2023/04/24 13:11:56;;;;;;;0.90;0.80;;;17.60;74.60;;;;;;4957354;28;20270;-85
2023/04/24 13:14:22;;;;;;;0.97;0.87;;;17.80;73.70;;;;;;4968164;28;20430;-85
2023/04/24 13:16:48;;;;;;;1.03;1.00;;;18.10;72.50;;;;;;4958149;28;20795;-84
2023/04/24 13:19:13;;;;;;;2.10;1.40;;;17.90;71.60;;;;;;4951493;29;20542;-84
2023/04/24 13:21:39;;;;;;;2.80;1.27;;;17.70;72.30;;;;;;4951390;29;20241;-85
2023/04/24 13:24:05;;;;;;;1.00;0.93;;;17.40;72.50;;;;;;4960985;28;20362;-85
2023/04/24 13:26:31;;;;;;;1.03;0.93;;;17.40;72.20;;;;;;4951692;29;20214;-84
2023/04/24 13:28:56;;;;;;;3.07;1.50;;;17.30;72.50;;;;;;4960477;28;20473;-84
2023/04/24 13:31:22;;;;;;;1.00;0.90;;;17.30;72.70;;;;;;4955169;28;20231;-84
2023/04/24 13:33:47;;;;;;;0.87;0.83;;;17.30;72.60;;;;;;4967733;28;20647;-84